createdAt,value
2019-05-01T00:01:42.617Z,35.97
2019-05-01T00:05:01.750Z,37.93
2019-05-01T00:08:11.485Z,35.90
2019-05-01T00:11:19.091Z,38.47
2019-05-01T00:14:26.972Z,38.67
2019-05-01T00:17:34.960Z,36.63
2019-05-01T00:20:42.523Z,38.40
2019-05-01T00:23:50.045Z,35.30
2019-05-01T00:26:57.633Z,38.53
2019-05-01T00:30:07.995Z,36.77
2019-05-01T00:33:15.627Z,35.90
2019-05-01T00:36:23.206Z,39.50
2019-05-01T00:39:30.773Z,37.57
2019-05-01T00:42:38.529Z,35.93
2019-05-01T00:45:46.057Z,35.67
2019-05-01T00:48:53.563Z,34.90
2019-05-01T00:52:01.421Z,35.03
2019-05-01T00:55:26.787Z,33.93
2019-05-01T00:58:42.581Z,34.17
2019-05-01T01:02:14.877Z,36.70
2019-05-01T01:05:23.677Z,40.17
2019-05-01T01:08:31.194Z,37.17
2019-05-01T01:11:38.617Z,37.73
2019-05-01T01:14:47.048Z,39.40
2019-05-01T01:17:54.661Z,38.80
2019-05-01T01:21:02.205Z,39.90
2019-05-01T01:24:10.113Z,40.90
2019-05-01T01:27:17.768Z,42.87
2019-05-01T01:30:25.406Z,43.40
2019-05-01T01:33:32.911Z,41.47
2019-05-01T01:36:40.387Z,40.77
2019-05-01T01:39:47.912Z,43.60
2019-05-01T01:42:58.203Z,43.80
2019-05-01T01:46:07.751Z,44.07
2019-05-01T01:49:15.779Z,45.33
2019-05-01T01:52:23.582Z,43.47
2019-05-01T01:55:31.435Z,45.10
2019-05-01T01:58:39.069Z,42.50
2019-05-01T02:02:01.203Z,40.77
2019-05-01T02:05:30.281Z,41.10
2019-05-01T02:08:38.348Z,42.27
2019-05-01T02:11:47.668Z,42.20
2019-05-01T02:14:55.166Z,44.63
2019-05-01T02:18:03.302Z,43.63
2019-05-01T02:21:10.891Z,42.97
2019-05-01T02:24:18.855Z,44.13
2019-05-01T02:27:33.430Z,43.80
2019-05-01T02:30:44.319Z,46.07
2019-05-01T02:33:53.592Z,45.47
2019-05-01T02:37:03.854Z,45.90
2019-05-01T02:40:44.883Z,48.67
2019-05-01T02:43:56.375Z,44.80
2019-05-01T02:47:08.246Z,49.70
2019-05-01T02:50:16.011Z,49.07
2019-05-01T02:53:25.339Z,47.63
2019-05-01T02:56:38.539Z,46.17
2019-05-01T02:59:48.836Z,45.97
2019-05-01T03:02:56.463Z,44.37
2019-05-01T03:06:04.093Z,48.37
2019-05-01T03:09:11.996Z,48.87
2019-05-01T03:12:23.131Z,42.60
2019-05-01T03:15:33.816Z,43.20
2019-05-01T03:18:46.367Z,46.10
2019-05-01T03:22:02.710Z,45.23
2019-05-01T03:25:11.429Z,48.00
2019-05-01T03:28:19.645Z,41.80
2019-05-01T03:31:27.620Z,40.47
2019-05-01T03:34:35.164Z,39.40
2019-05-01T03:37:42.910Z,41.97
2019-05-01T03:40:50.872Z,41.03
2019-05-01T03:43:58.321Z,39.67
2019-05-01T03:47:05.825Z,40.33
2019-05-01T03:50:13.335Z,38.80
2019-05-01T03:53:21.109Z,38.80
2019-05-01T03:56:29.776Z,39.50
2019-05-01T03:59:38.053Z,36.40
2019-05-01T04:02:51.185Z,38.03
2019-05-01T04:05:58.614Z,37.57
2019-05-01T04:09:08.818Z,36.77
2019-05-01T04:12:16.467Z,34.67
2019-05-01T04:15:24.012Z,32.80
2019-05-01T04:18:31.526Z,34.23
2019-05-01T04:21:47.661Z,34.63
2019-05-01T04:24:55.728Z,33.80
2019-05-01T04:28:22.079Z,30.50
2019-05-01T04:31:45.187Z,28.00
2019-05-01T04:34:58.557Z,28.27
2019-05-01T04:38:06.348Z,25.50
2019-05-01T04:41:14.043Z,26.23
2019-05-01T04:44:21.938Z,25.27
2019-05-01T04:47:29.540Z,26.00
2019-05-01T04:50:38.200Z,28.77
2019-05-01T04:53:45.659Z,24.07
2019-05-01T04:56:53.453Z,22.57
2019-05-01T05:00:01.764Z,22.10
2019-05-01T05:03:14.461Z,21.00
2019-05-01T05:06:22.081Z,20.10
2019-05-01T05:09:47.290Z,21.23
2019-05-01T05:13:14.356Z,21.73
2019-05-01T05:16:40.971Z,25.70
2019-05-01T05:19:48.617Z,29.07
2019-05-01T05:22:56.241Z,29.90
2019-05-01T05:26:04.990Z,29.57
2019-05-01T05:29:13.485Z,31.70
2019-05-01T05:32:23.389Z,27.67
2019-05-01T05:35:33.667Z,17.63
2019-05-01T05:39:08.067Z,18.57
2019-05-01T05:42:15.708Z,18.70
2019-05-01T05:45:24.057Z,22.53
2019-05-01T05:48:31.752Z,21.53
2019-05-01T05:52:01.076Z,14.63
2019-05-01T05:55:14.666Z,20.10
2019-05-01T05:58:58.791Z,21.70
2019-05-01T06:02:35.071Z,14.43
2019-05-01T06:06:02.708Z,16.30
2019-05-01T06:09:13.949Z,16.40
2019-05-01T06:12:26.978Z,15.40
2019-05-01T06:15:57.594Z,14.10
2019-05-01T06:19:29.830Z,18.30
2019-05-01T06:22:56.647Z,14.70
2019-05-01T06:26:24.091Z,14.70
2019-05-01T06:29:35.814Z,13.87
2019-05-01T06:32:42.146Z,15.00
2019-05-01T06:35:49.735Z,18.07
2019-05-01T06:38:58.101Z,15.27
2019-05-01T06:42:09.869Z,20.37
2019-05-01T06:45:18.033Z,14.93
2019-05-01T06:48:27.092Z,16.53
2019-05-01T06:51:47.918Z,20.33
2019-05-01T06:54:55.647Z,22.90
2019-05-01T06:58:03.576Z,14.97
2019-05-01T07:01:13.764Z,14.10
2019-05-01T07:04:21.129Z,19.63
2019-05-01T07:07:29.237Z,12.53
2019-05-01T07:10:43.953Z,13.67
2019-05-01T07:13:55.529Z,11.33
2019-05-01T07:17:02.032Z,12.57
2019-05-01T07:20:39.252Z,11.50
2019-05-01T07:23:47.852Z,11.30
2019-05-01T07:26:59.795Z,14.07
2019-05-01T07:30:15.915Z,10.40
2019-05-01T07:33:25.524Z,11.30
2019-05-01T07:36:33.178Z,11.87
2019-05-01T07:39:44.905Z,10.10
2019-05-01T07:42:52.630Z,10.20
2019-05-01T07:46:22.550Z,10.10
2019-05-01T07:49:54.690Z,10.03
2019-05-01T07:53:02.829Z,10.10
2019-05-01T07:56:10.915Z,8.60
2019-05-01T07:59:22.816Z,8.93
2019-05-01T08:02:31.129Z,9.77
2019-05-01T08:05:40.826Z,10.47
2019-05-01T08:08:47.269Z,9.23
2019-05-01T08:11:54.792Z,8.80
2019-05-01T08:15:02.395Z,7.93
2019-05-01T08:18:17.298Z,7.23
2019-05-01T08:21:57.046Z,7.77
2019-05-01T08:25:02.280Z,7.80
2019-05-01T08:28:18.934Z,7.50
2019-05-01T08:31:37.270Z,7.20
2019-05-01T08:34:49.267Z,7.20
2019-05-01T08:37:58.509Z,7.33
2019-05-01T08:41:03.927Z,7.90
2019-05-01T08:44:11.507Z,6.50
2019-05-01T08:47:28.453Z,6.33
2019-05-01T08:50:36.240Z,10.50
2019-05-01T08:53:43.711Z,8.60
2019-05-01T08:56:52.924Z,13.13
2019-05-01T09:00:01.684Z,6.50
2019-05-01T09:03:13.518Z,7.47
2019-05-01T09:06:20.072Z,6.23
2019-05-01T09:09:27.760Z,10.23
2019-05-01T09:12:35.597Z,5.50
2019-05-01T09:15:43.836Z,9.10
2019-05-01T09:18:52.592Z,5.90
2019-05-01T09:22:00.334Z,6.80
2019-05-01T09:25:09.402Z,7.23
2019-05-01T09:28:25.663Z,7.10
2019-05-01T09:31:35.554Z,7.97
2019-05-01T09:34:43.269Z,6.30
2019-05-01T09:37:51.156Z,6.80
2019-05-01T09:41:00.741Z,8.20
2019-05-01T09:44:10.613Z,6.60
2019-05-01T09:47:17.958Z,6.60
2019-05-01T09:50:30.329Z,6.00
2019-05-01T09:53:48.326Z,7.40
2019-05-01T09:56:55.950Z,6.07
2019-05-01T10:00:05.252Z,7.00
2019-05-01T10:03:16.863Z,6.70
2019-05-01T10:06:22.929Z,5.20
2019-05-01T10:09:30.455Z,4.97
2019-05-01T10:12:41.910Z,4.87
2019-05-01T10:15:47.342Z,6.07
2019-05-01T10:18:55.290Z,5.00
2019-05-01T10:22:03.759Z,6.60
2019-05-01T10:25:13.576Z,5.20
2019-05-01T10:28:50.137Z,5.80
2019-05-01T10:32:06.587Z,11.03
2019-05-01T10:35:42.617Z,5.80
2019-05-01T10:38:45.006Z,8.77
2019-05-01T10:41:51.391Z,12.53
2019-05-01T10:44:58.851Z,6.40
2019-05-01T10:48:06.915Z,12.40
2019-05-01T10:51:16.308Z,9.53
2019-05-01T10:54:24.298Z,7.57
2019-05-01T10:57:35.010Z,6.50
2019-05-01T11:00:43.184Z,6.27
2019-05-01T11:03:50.852Z,6.87
2019-05-01T11:06:58.646Z,6.87
2019-05-01T11:10:07.404Z,7.33
2019-05-01T11:13:15.324Z,7.73
2019-05-01T11:16:23.084Z,7.17
2019-05-01T11:19:31.072Z,6.37
2019-05-01T11:22:38.806Z,5.97
2019-05-01T11:25:46.288Z,6.67
2019-05-01T11:28:53.868Z,6.77
2019-05-01T11:32:18.298Z,7.13
2019-05-01T11:35:44.731Z,8.90
2019-05-01T11:39:11.262Z,7.47
2019-05-01T11:42:18.956Z,7.40
2019-05-01T11:45:27.609Z,6.27
2019-05-01T11:48:35.578Z,7.83
2019-05-01T11:51:43.413Z,8.63
2019-05-01T11:54:51.221Z,6.70
2019-05-01T11:57:58.907Z,8.00
2019-05-01T12:01:07.465Z,7.20
2019-05-01T12:04:15.383Z,7.10
2019-05-01T12:07:22.943Z,8.27
2019-05-01T12:10:30.541Z,8.13
2019-05-01T12:13:43.911Z,7.83
2019-05-01T12:17:04.974Z,7.83
2019-05-01T12:20:13.702Z,8.20
2019-05-01T12:23:21.608Z,8.87
2019-05-01T12:26:29.028Z,8.40
2019-05-01T12:29:36.922Z,8.37
2019-05-01T12:32:44.418Z,8.83
2019-05-01T12:35:53.415Z,9.20
2019-05-01T12:39:00.887Z,9.20
2019-05-01T12:42:10.053Z,8.63
2019-05-01T12:45:17.929Z,9.50
2019-05-01T12:48:25.412Z,9.27
2019-05-01T12:51:33.131Z,8.93
2019-05-01T12:54:53.982Z,9.00
2019-05-01T12:58:01.497Z,9.10
2019-05-01T13:01:08.966Z,8.57
2019-05-01T13:04:16.398Z,9.00
2019-05-01T13:07:24.207Z,8.17
2019-05-01T13:10:31.655Z,8.83
2019-05-01T13:13:39.178Z,7.97
2019-05-01T13:16:46.654Z,7.00
2019-05-01T13:19:54.092Z,7.77
2019-05-01T13:23:01.613Z,7.40
2019-05-01T13:26:30.850Z,7.07
2019-05-01T13:29:42.987Z,6.73
2019-05-01T13:32:51.782Z,7.13
2019-05-01T13:35:59.208Z,6.90
2019-05-01T13:39:09.838Z,7.93
2019-05-01T13:42:17.374Z,6.77
2019-05-01T13:45:24.849Z,5.77
2019-05-01T13:48:32.312Z,6.00
2019-05-01T13:51:39.758Z,6.30
2019-05-01T13:54:47.196Z,6.87
2019-05-01T13:57:54.696Z,7.57
2019-05-01T14:01:02.248Z,7.10
2019-05-01T14:04:11.932Z,6.83
2019-05-01T14:07:19.627Z,7.07
2019-05-01T14:10:27.470Z,7.30
2019-05-01T14:13:35.006Z,7.10
2019-05-01T14:16:42.492Z,5.77
2019-05-01T14:19:59.071Z,5.80
2019-05-01T14:23:11.928Z,5.87
2019-05-01T14:26:19.386Z,6.20
2019-05-01T14:29:26.834Z,6.50
2019-05-01T14:32:34.240Z,6.03
2019-05-01T14:35:41.708Z,6.67
2019-05-01T14:38:49.313Z,6.27
2019-05-01T14:41:56.822Z,7.00
2019-05-01T14:45:05.042Z,6.27
2019-05-01T14:48:12.468Z,7.03
2019-05-01T14:51:21.770Z,6.70
2019-05-01T14:54:29.338Z,6.83
2019-05-01T14:57:36.822Z,6.57
2019-05-01T15:00:44.479Z,6.97
2019-05-01T15:03:51.928Z,7.30
2019-05-01T15:07:00.249Z,6.20
2019-05-01T15:10:08.139Z,7.53
2019-05-01T15:13:26.042Z,6.90
2019-05-01T15:16:38.124Z,6.50
2019-05-01T15:19:55.515Z,6.80
2019-05-01T15:23:03.138Z,6.77
2019-05-01T15:26:10.572Z,7.40
2019-05-01T15:29:18.074Z,7.63
2019-05-01T15:32:25.539Z,7.10
2019-05-01T15:35:34.478Z,7.30
2019-05-01T15:38:41.913Z,6.50
2019-05-01T15:42:10.966Z,7.50
2019-05-01T15:45:20.093Z,7.03
2019-05-01T15:48:27.900Z,7.80
2019-05-01T15:51:36.537Z,7.13
2019-05-01T15:54:44.094Z,7.40
2019-05-01T15:57:51.528Z,7.43
2019-05-01T16:01:00.132Z,7.10
2019-05-01T16:04:07.674Z,7.13
2019-05-01T16:07:15.119Z,6.90
2019-05-01T16:10:27.019Z,6.53
2019-05-01T16:13:34.611Z,6.80
2019-05-01T16:16:42.114Z,6.90
2019-05-01T16:19:49.610Z,7.50
2019-05-01T16:22:57.447Z,7.30
2019-05-01T16:26:05.020Z,7.23
2019-05-01T16:29:12.510Z,7.57
2019-05-01T16:32:20.016Z,7.60
2019-05-01T16:35:27.560Z,8.03
2019-05-01T16:38:49.882Z,7.60
2019-05-01T16:41:57.373Z,8.50
2019-05-01T16:45:06.194Z,7.67
2019-05-01T16:48:13.852Z,8.53
2019-05-01T16:51:28.325Z,9.57
2019-05-01T16:54:35.900Z,8.60
2019-05-01T16:57:43.386Z,8.93
2019-05-01T17:01:06.898Z,9.57
2019-05-01T17:04:28.920Z,11.80
2019-05-01T17:07:44.343Z,12.47
2019-05-01T17:10:51.951Z,12.43
2019-05-01T17:14:01.172Z,12.27
2019-05-01T17:17:39.317Z,12.63
2019-05-01T17:20:50.374Z,12.67
2019-05-01T17:23:57.838Z,12.80
2019-05-01T17:27:05.379Z,13.90
2019-05-01T17:30:18.535Z,13.87
2019-05-01T17:33:26.069Z,16.80
2019-05-01T17:36:33.532Z,16.27
2019-05-01T17:39:40.957Z,17.40
2019-05-01T17:42:49.991Z,18.70
2019-05-01T17:45:57.592Z,19.70
2019-05-01T17:49:09.308Z,18.60
2019-05-01T17:52:14.241Z,21.27
2019-05-01T17:55:21.805Z,19.97
2019-05-01T17:58:29.346Z,22.80
2019-05-01T18:01:57.522Z,22.20
2019-05-01T18:05:27.065Z,23.03
2019-05-01T18:08:34.473Z,24.40
2019-05-01T18:11:42.054Z,27.00
2019-05-01T18:14:49.629Z,27.17
2019-05-01T18:17:57.180Z,30.37
2019-05-01T18:21:04.979Z,30.60
2019-05-01T18:24:30.175Z,31.13
2019-05-01T18:28:02.469Z,30.37
2019-05-01T18:31:15.881Z,33.13
2019-05-01T18:34:23.297Z,32.90
2019-05-01T18:37:36.421Z,36.23
2019-05-01T18:40:49.328Z,35.60
2019-05-01T18:43:56.793Z,35.40
2019-05-01T18:47:04.764Z,36.70
2019-05-01T18:50:13.656Z,37.03
2019-05-01T18:53:21.336Z,39.67
2019-05-01T18:56:29.400Z,40.40
2019-05-01T18:59:36.975Z,42.97
2019-05-01T19:02:44.511Z,40.53
2019-05-01T19:05:52.208Z,39.57
2019-05-01T19:08:59.679Z,35.70
2019-05-01T19:12:09.638Z,30.70
2019-05-01T19:15:17.294Z,31.70
2019-05-01T19:18:24.877Z,30.90
2019-05-01T19:21:32.858Z,33.23
2019-05-01T19:24:41.947Z,29.83
2019-05-01T19:27:49.435Z,31.90
2019-05-01T19:30:57.057Z,32.10
2019-05-01T19:34:04.592Z,33.53
2019-05-01T19:37:16.522Z,31.40
2019-05-01T19:40:24.962Z,35.53
2019-05-01T19:43:35.912Z,29.50
2019-05-01T19:46:41.216Z,26.77
2019-05-01T19:49:48.762Z,25.60
2019-05-01T19:52:57.323Z,24.20
2019-05-01T19:56:04.957Z,23.20
2019-05-01T19:59:12.425Z,28.10
2019-05-01T20:02:22.301Z,31.03
2019-05-01T20:05:29.218Z,28.67
2019-05-01T20:08:36.849Z,32.10
2019-05-01T20:11:44.461Z,32.30
2019-05-01T20:14:52.195Z,33.10
2019-05-01T20:17:59.663Z,31.03
2019-05-01T20:21:07.557Z,33.73
2019-05-01T20:24:15.070Z,25.70
2019-05-01T20:27:23.242Z,29.37
2019-05-01T20:30:30.911Z,28.47
2019-05-01T20:33:40.916Z,38.60
2019-05-01T20:36:47.714Z,40.93
2019-05-01T20:40:09.815Z,45.50
2019-05-01T20:43:07.223Z,42.63
2019-05-01T20:46:15.037Z,46.30
2019-05-01T20:49:22.595Z,43.67
2019-05-01T20:52:30.168Z,45.53
2019-05-01T20:55:37.749Z,42.50
2019-05-01T20:58:45.320Z,40.40
2019-05-01T21:01:52.799Z,41.53
2019-05-01T21:05:24.975Z,35.60
2019-05-01T21:08:41.105Z,31.70
2019-05-01T21:12:04.497Z,33.73
2019-05-01T21:15:00.509Z,23.70
2019-05-01T21:18:08.172Z,23.00
2019-05-01T21:21:15.665Z,19.53
2019-05-01T21:24:24.010Z,20.40
2019-05-01T21:27:33.479Z,26.40
2019-05-01T21:30:43.955Z,27.47
2019-05-01T21:33:50.635Z,27.20
2019-05-01T21:36:58.073Z,24.93
2019-05-01T21:40:06.490Z,25.93
2019-05-01T21:43:14.031Z,31.57
2019-05-01T21:46:22.742Z,32.60
2019-05-01T21:49:33.127Z,35.70
2019-05-01T21:52:40.615Z,35.20
2019-05-01T21:55:48.269Z,36.00
2019-05-01T21:58:59.527Z,35.13
2019-05-01T22:02:09.650Z,34.10
2019-05-01T22:05:14.513Z,37.40
2019-05-01T22:08:22.436Z,39.47
2019-05-01T22:11:33.149Z,41.47
2019-05-01T22:14:45.582Z,37.23
2019-05-01T22:18:03.011Z,34.93
2019-05-01T22:21:19.373Z,38.43
2019-05-01T22:24:47.649Z,37.10
2019-05-01T22:28:01.345Z,38.87
2019-05-01T22:31:36.996Z,46.37
2019-05-01T22:34:48.245Z,42.87
2019-05-01T22:37:55.731Z,44.77
2019-05-01T22:41:08.234Z,53.37
2019-05-01T22:44:18.053Z,52.33
2019-05-01T22:47:24.773Z,57.60
2019-05-01T22:50:32.234Z,56.47
2019-05-01T22:53:39.773Z,55.77
2019-05-01T22:56:47.797Z,49.83
2019-05-01T22:59:55.353Z,52.27
2019-05-01T23:03:07.014Z,47.27
2019-05-01T23:06:14.707Z,45.53
2019-05-01T23:09:28.348Z,49.33
2019-05-01T23:12:32.833Z,48.53
2019-05-01T23:15:40.433Z,44.40
2019-05-01T23:18:51.974Z,42.93
2019-05-01T23:21:58.857Z,43.13
2019-05-01T23:25:07.068Z,44.70
2019-05-01T23:28:14.609Z,41.83
2019-05-01T23:31:22.217Z,44.07
2019-05-01T23:34:29.658Z,40.40
2019-05-01T23:37:37.631Z,40.67
2019-05-01T23:40:51.089Z,40.37
2019-05-01T23:44:01.576Z,40.47
2019-05-01T23:47:05.713Z,39.03
2019-05-01T23:50:13.597Z,37.20
2019-05-01T23:53:21.085Z,38.90
2019-05-01T23:56:31.009Z,36.50
2019-05-01T23:59:37.672Z,37.53
